Doon, Iowa
Current Conditions -  °F | °C
As of 8:35 PM on Wednesday 22 Oct 2014 (Local Time) from KSHL Reporting Station
Moderate Rain Moderate Rain  
Wind Chill: 57°   Ceiling: 3700
Heat Index: 57°   Visibility: 3mi
Dew Point: 57°   Wind: 8mph
Humidity: 100%   Direction: 180°S
Pressure: 30.02"   Gusts: NA
Location:  43.28°N, 96.23°W
Report Text: KSHL 230135Z AUTO 18007KT 3SM RA FEW003 FEW024 OVC037 14/14 A3002 RMK AO2
Loading
Personal Weather Stations






























Interactive Weather Map
Tropical Storm Tracking
New forecast layout! Learn more

10-Day Weather Forecast

Advertisements
Track Severe Weather on mobile